createdAt,value
2022-10-19T00:01:03.589Z,6.57
2022-10-19T00:03:30.800Z,6.55
2022-10-19T00:05:57.617Z,6.32
2022-10-19T00:08:24.408Z,6.35
2022-10-19T00:10:51.163Z,5.90
2022-10-19T00:13:18.149Z,5.88
2022-10-19T00:15:45.320Z,5.60
2022-10-19T00:18:12.051Z,6.10
2022-10-19T00:20:38.735Z,5.97
2022-10-19T00:23:05.446Z,6.07
2022-10-19T00:25:32.263Z,5.68
2022-10-19T00:27:59.189Z,5.40
2022-10-19T00:30:25.830Z,5.50
2022-10-19T00:32:52.576Z,5.28
2022-10-19T00:35:19.292Z,5.55
2022-10-19T00:37:45.966Z,5.68
2022-10-19T00:40:13.117Z,5.72
2022-10-19T00:42:39.692Z,5.13
2022-10-19T00:45:13.748Z,5.18
2022-10-19T00:47:41.345Z,5.72
2022-10-19T00:50:09.141Z,4.93
2022-10-19T00:52:36.138Z,5.65
2022-10-19T00:55:03.357Z,5.28
2022-10-19T00:57:31.789Z,5.28
2022-10-19T01:00:00.987Z,5.72
2022-10-19T01:02:27.740Z,5.05
2022-10-19T01:04:54.760Z,5.40
2022-10-19T01:07:21.686Z,5.55
2022-10-19T01:09:48.349Z,5.00
2022-10-19T01:12:23.647Z,5.05
2022-10-19T01:15:05.653Z,4.78
2022-10-19T01:17:45.694Z,4.10
2022-10-19T01:20:49.620Z,4.07
2022-10-19T01:23:34.844Z,4.18
2022-10-19T01:26:04.155Z,4.70
2022-10-19T01:28:46.001Z,4.75
2022-10-19T01:31:48.077Z,3.85
2022-10-19T01:34:33.289Z,4.38
2022-10-19T01:37:02.832Z,4.38
2022-10-19T01:40:02.059Z,4.00
2022-10-19T01:42:32.968Z,3.33
2022-10-19T01:45:11.399Z,3.83
2022-10-19T01:47:58.229Z,3.95
2022-10-19T01:50:36.098Z,3.85
2022-10-19T01:53:06.662Z,4.20
2022-10-19T01:55:34.398Z,4.45
2022-10-19T01:58:08.359Z,4.38
2022-10-19T02:00:41.213Z,4.03
2022-10-19T02:03:10.287Z,4.53
2022-10-19T02:05:39.066Z,4.68
2022-10-19T02:08:15.709Z,4.22
2022-10-19T02:10:45.078Z,3.95
2022-10-19T02:13:14.289Z,3.72
2022-10-19T02:15:45.156Z,4.03
2022-10-19T02:18:15.737Z,3.95
2022-10-19T02:20:42.372Z,4.03
2022-10-19T02:23:09.847Z,4.00
2022-10-19T02:25:36.924Z,4.55
2022-10-19T02:28:05.511Z,3.90
2022-10-19T02:30:32.426Z,4.10
2022-10-19T02:32:59.354Z,3.88
2022-10-19T02:35:26.476Z,4.25
2022-10-19T02:37:53.201Z,3.83
2022-10-19T02:40:20.064Z,3.78
2022-10-19T02:42:58.442Z,4.50
2022-10-19T02:45:37.455Z,3.85
2022-10-19T02:48:13.184Z,3.85
2022-10-19T02:50:44.384Z,3.60
2022-10-19T02:53:11.169Z,2.50
2022-10-19T02:55:38.192Z,2.25
2022-10-19T02:58:05.010Z,2.47
2022-10-19T03:00:31.674Z,2.72
2022-10-19T03:02:58.261Z,2.10
2022-10-19T03:05:24.941Z,2.42
2022-10-19T03:07:52.042Z,2.20
2022-10-19T03:10:18.620Z,2.72
2022-10-19T03:12:45.312Z,2.47
2022-10-19T03:15:16.551Z,2.58
2022-10-19T03:17:43.473Z,2.30
2022-10-19T03:20:11.058Z,2.55
2022-10-19T03:22:38.063Z,2.90
2022-10-19T03:25:05.055Z,2.00
2022-10-19T03:27:32.020Z,2.35
2022-10-19T03:29:58.811Z,2.15
2022-10-19T03:32:25.594Z,2.38
2022-10-19T03:34:52.418Z,2.58
2022-10-19T03:37:19.080Z,1.70
2022-10-19T03:39:45.823Z,2.10
2022-10-19T03:42:12.520Z,2.60
2022-10-19T03:44:39.172Z,2.08
2022-10-19T03:47:05.809Z,2.28
2022-10-19T03:49:34.561Z,2.05
2022-10-19T03:52:03.594Z,1.42
2022-10-19T03:54:30.183Z,1.95
2022-10-19T03:56:56.858Z,2.42
2022-10-19T03:59:24.402Z,2.30
2022-10-19T04:01:51.000Z,2.15
2022-10-19T04:04:19.464Z,2.72
2022-10-19T04:06:48.115Z,1.52
2022-10-19T04:09:18.375Z,2.22
2022-10-19T04:11:45.903Z,1.83
2022-10-19T04:14:26.755Z,2.05
2022-10-19T04:17:03.346Z,1.50
2022-10-19T04:19:30.985Z,1.60
2022-10-19T04:21:58.169Z,1.27
2022-10-19T04:24:25.017Z,1.58
2022-10-19T04:26:54.539Z,1.60
2022-10-19T04:29:26.350Z,1.40
2022-10-19T04:31:56.329Z,1.60
2022-10-19T04:34:23.200Z,1.45
2022-10-19T04:36:50.086Z,1.58
2022-10-19T04:39:16.722Z,1.05
2022-10-19T04:41:43.348Z,1.55
2022-10-19T04:44:10.575Z,1.50
2022-10-19T04:46:38.484Z,1.25
2022-10-19T04:49:06.869Z,1.65
2022-10-19T04:51:33.717Z,1.25
2022-10-19T04:54:00.349Z,1.17
2022-10-19T04:56:27.847Z,1.48
2022-10-19T04:58:57.632Z,1.45
2022-10-19T05:01:25.610Z,1.65
2022-10-19T05:06:29.573Z,1.95
2022-10-19T05:08:56.857Z,1.63
2022-10-19T05:11:23.955Z,1.45
2022-10-19T05:13:51.244Z,1.48
2022-10-19T05:16:20.886Z,1.48
2022-10-19T05:18:51.980Z,1.58
2022-10-19T05:21:20.749Z,1.75
2022-10-19T05:23:50.606Z,1.50
2022-10-19T05:26:19.024Z,1.63
2022-10-19T05:29:04.748Z,1.60
2022-10-19T05:31:33.618Z,1.52
2022-10-19T05:34:01.240Z,1.35
2022-10-19T05:36:37.451Z,1.40
2022-10-19T05:39:13.091Z,1.95
2022-10-19T05:41:40.398Z,1.25
2022-10-19T05:44:07.030Z,1.15
2022-10-19T05:46:33.991Z,1.60
2022-10-19T05:49:00.766Z,1.58
2022-10-19T05:51:28.710Z,1.30
2022-10-19T05:53:56.458Z,1.40
2022-10-19T05:56:29.568Z,1.50
2022-10-19T05:58:58.236Z,1.50
2022-10-19T06:01:25.750Z,1.55
2022-10-19T06:03:54.755Z,1.48
2022-10-19T06:06:21.960Z,1.55
2022-10-19T06:08:49.639Z,1.83
2022-10-19T06:11:25.920Z,1.35
2022-10-19T06:13:55.798Z,1.52
2022-10-19T06:16:24.113Z,1.40
2022-10-19T06:18:52.437Z,1.50
2022-10-19T06:21:22.562Z,1.30
2022-10-19T06:24:03.999Z,1.40
2022-10-19T06:26:32.443Z,2.00
2022-10-19T06:29:00.791Z,1.50
2022-10-19T06:31:33.249Z,1.73
2022-10-19T06:34:00.104Z,1.80
2022-10-19T06:36:30.037Z,1.35
2022-10-19T06:38:57.100Z,1.50
2022-10-19T06:41:24.103Z,1.90
2022-10-19T06:43:55.090Z,1.80
2022-10-19T06:46:23.457Z,1.55
2022-10-19T06:48:55.967Z,1.48
2022-10-19T06:51:25.477Z,1.85
2022-10-19T06:53:56.634Z,1.30
2022-10-19T06:56:24.804Z,1.45
2022-10-19T06:58:52.383Z,1.70
2022-10-19T07:01:19.237Z,1.70
2022-10-19T07:03:46.059Z,1.35
2022-10-19T07:06:13.749Z,1.45
2022-10-19T07:08:42.166Z,1.70
2022-10-19T07:11:12.319Z,1.55
2022-10-19T07:13:39.432Z,1.38
2022-10-19T07:16:14.512Z,1.65
2022-10-19T07:18:44.666Z,3.65
2022-10-19T07:21:14.188Z,1.73
2022-10-19T07:23:42.361Z,1.88
2022-10-19T07:26:23.496Z,1.73
2022-10-19T07:28:50.995Z,1.60
2022-10-19T07:31:20.632Z,1.20
2022-10-19T07:33:51.632Z,1.65
2022-10-19T07:36:18.224Z,1.30
2022-10-19T07:38:44.885Z,0.93
2022-10-19T07:41:13.973Z,1.52
2022-10-19T07:43:41.952Z,1.27
2022-10-19T07:46:12.487Z,1.17
2022-10-19T07:48:39.326Z,1.52
2022-10-19T07:51:08.160Z,1.17
2022-10-19T07:53:35.428Z,1.23
2022-10-19T07:56:05.028Z,1.17
2022-10-19T07:58:31.902Z,1.30
2022-10-19T08:01:10.033Z,1.25
2022-10-19T08:06:25.446Z,1.20
2022-10-19T08:08:54.576Z,1.58
2022-10-19T08:11:48.047Z,1.10
2022-10-19T08:15:07.889Z,1.30
2022-10-19T08:17:11.964Z,1.30
2022-10-19T08:19:43.389Z,1.45
2022-10-19T08:22:10.733Z,1.02
2022-10-19T08:24:37.491Z,0.80
2022-10-19T08:27:04.209Z,1.00
2022-10-19T08:29:31.703Z,1.30
2022-10-19T08:31:59.525Z,1.10
2022-10-19T08:34:36.964Z,1.50
2022-10-19T08:37:10.442Z,1.10
2022-10-19T08:39:46.886Z,1.02
2022-10-19T08:42:18.445Z,0.85
2022-10-19T08:45:23.214Z,0.73
2022-10-19T08:48:14.408Z,1.27
2022-10-19T08:50:44.125Z,1.63
2022-10-19T08:53:15.768Z,1.17
2022-10-19T08:56:05.731Z,1.75
2022-10-19T08:58:53.385Z,1.13
2022-10-19T09:01:40.862Z,1.50
2022-10-19T09:04:33.341Z,1.20
2022-10-19T09:09:41.614Z,1.80
2022-10-19T09:12:16.758Z,1.27
2022-10-19T09:15:06.044Z,1.70
2022-10-19T09:17:33.676Z,1.60
2022-10-19T09:20:22.651Z,1.00
2022-10-19T09:23:20.012Z,1.83
2022-10-19T09:25:50.188Z,1.50
2022-10-19T09:28:20.138Z,1.33
2022-10-19T09:30:52.357Z,1.38
2022-10-19T09:33:31.691Z,1.60
2022-10-19T09:36:02.265Z,1.35
2022-10-19T09:38:31.544Z,1.40
2022-10-19T09:41:07.730Z,1.35
2022-10-19T09:43:34.885Z,1.17
2022-10-19T09:46:19.834Z,1.35
2022-10-19T09:48:52.399Z,1.33
2022-10-19T09:51:20.574Z,1.88
2022-10-19T09:53:54.884Z,1.10
2022-10-19T09:56:26.888Z,1.48
2022-10-19T10:01:41.468Z,1.20
2022-10-19T10:04:14.956Z,0.93
2022-10-19T10:09:17.374Z,1.88
2022-10-19T10:11:48.236Z,1.83
2022-10-19T10:14:21.664Z,1.02
2022-10-19T10:16:48.408Z,1.30
2022-10-19T10:19:17.332Z,1.55
2022-10-19T10:21:56.670Z,1.20
2022-10-19T10:24:29.520Z,1.73
2022-10-19T10:26:58.740Z,1.63
2022-10-19T10:29:28.282Z,1.08
2022-10-19T10:32:32.187Z,1.20
2022-10-19T10:35:04.915Z,1.20
2022-10-19T10:37:46.907Z,1.40
2022-10-19T10:40:31.998Z,1.50
2022-10-19T10:43:07.138Z,1.77
2022-10-19T10:45:39.774Z,1.40
2022-10-19T10:48:25.290Z,1.00
2022-10-19T10:50:53.031Z,1.25
2022-10-19T10:53:55.126Z,0.93
2022-10-19T10:56:21.727Z,1.75
2022-10-19T10:59:00.576Z,1.10
2022-10-19T11:01:33.616Z,1.42
2022-10-19T11:04:19.401Z,1.38
2022-10-19T11:06:56.654Z,1.10
2022-10-19T11:09:35.713Z,0.85
2022-10-19T11:12:10.381Z,0.73
2022-10-19T11:14:46.775Z,0.70
2022-10-19T11:17:27.685Z,1.08
2022-10-19T11:19:54.467Z,1.02
2022-10-19T11:22:35.558Z,0.80
2022-10-19T11:25:25.139Z,0.75
2022-10-19T11:28:01.917Z,1.13
2022-10-19T11:30:39.023Z,0.80
2022-10-19T11:33:59.798Z,1.08
2022-10-19T11:36:54.729Z,0.98
2022-10-19T11:39:36.279Z,1.20
2022-10-19T11:42:34.756Z,1.25
2022-10-19T11:45:40.003Z,1.00
2022-10-19T11:48:06.654Z,0.85
2022-10-19T11:50:49.718Z,1.00
2022-10-19T11:54:18.811Z,1.00
2022-10-19T11:57:11.506Z,0.70
2022-10-19T12:00:38.066Z,1.13
2022-10-19T12:03:44.814Z,0.55
2022-10-19T12:06:45.794Z,0.60
2022-10-19T12:09:25.034Z,0.60
2022-10-19T12:12:22.770Z,0.90
2022-10-19T12:14:53.521Z,0.47
2022-10-19T12:17:36.572Z,0.90
2022-10-19T12:20:08.770Z,0.68
2022-10-19T12:25:04.942Z,0.80
2022-10-19T12:27:37.400Z,0.88
2022-10-19T12:30:16.924Z,0.70
2022-10-19T12:32:58.682Z,0.82
2022-10-19T12:35:32.377Z,0.88
2022-10-19T12:38:45.087Z,0.50
2022-10-19T12:41:41.689Z,0.85
2022-10-19T12:44:27.326Z,0.95
2022-10-19T12:47:01.049Z,0.70
2022-10-19T12:49:30.595Z,0.70
2022-10-19T12:51:59.190Z,0.80
2022-10-19T12:54:39.171Z,0.60
2022-10-19T12:57:36.668Z,0.68
2022-10-19T13:00:20.597Z,0.90
2022-10-19T13:02:56.897Z,0.80
2022-10-19T13:05:37.696Z,0.70
2022-10-19T13:08:30.094Z,0.80
2022-10-19T13:11:18.098Z,0.60
2022-10-19T13:13:59.206Z,0.70
2022-10-19T13:17:02.087Z,0.73
2022-10-19T13:19:29.637Z,0.50
2022-10-19T13:22:02.094Z,0.70
2022-10-19T13:24:37.011Z,0.60
2022-10-19T13:27:03.766Z,0.70
2022-10-19T13:29:40.510Z,0.52
2022-10-19T13:32:37.607Z,0.80
2022-10-19T13:35:31.638Z,0.50
2022-10-19T13:38:16.563Z,0.80
2022-10-19T13:40:49.345Z,0.70
2022-10-19T13:43:26.057Z,0.82
2022-10-19T13:46:06.210Z,0.50
2022-10-19T13:49:14.420Z,0.63
2022-10-19T13:51:43.900Z,0.80
2022-10-19T13:54:34.113Z,0.95
2022-10-19T13:57:15.386Z,0.60
2022-10-19T14:00:03.154Z,1.10
2022-10-19T14:02:42.230Z,0.80
2022-10-19T14:05:17.861Z,0.60
2022-10-19T14:08:16.420Z,0.93
2022-10-19T14:11:02.958Z,0.63
2022-10-19T14:13:30.185Z,1.10
2022-10-19T14:15:58.973Z,1.02
2022-10-19T14:18:32.944Z,0.90
2022-10-19T14:21:08.343Z,1.08
2022-10-19T14:23:43.096Z,1.15
2022-10-19T14:26:19.617Z,1.00
2022-10-19T14:28:53.616Z,1.27
2022-10-19T14:31:23.176Z,1.00
2022-10-19T14:33:56.429Z,1.38
2022-10-19T14:36:28.199Z,1.33
2022-10-19T14:38:56.442Z,1.10
2022-10-19T14:44:36.437Z,1.92
2022-10-19T14:47:23.379Z,1.13
2022-10-19T14:49:50.976Z,1.05
2022-10-19T14:54:56.938Z,0.90
2022-10-19T14:57:28.886Z,1.05
2022-10-19T15:00:02.196Z,1.10
2022-10-19T15:02:46.182Z,1.08
2022-10-19T15:05:31.449Z,1.67
2022-10-19T15:08:06.232Z,1.17
2022-10-19T15:10:45.879Z,0.95
2022-10-19T15:13:40.954Z,1.05
2022-10-19T15:16:50.043Z,0.80
2022-10-19T15:19:34.213Z,0.68
2022-10-19T15:22:22.562Z,1.00
2022-10-19T15:25:19.305Z,1.33
2022-10-19T15:27:47.658Z,1.20
2022-10-19T15:30:17.251Z,0.82
2022-10-19T15:32:46.708Z,1.30
2022-10-19T15:35:35.052Z,1.40
2022-10-19T15:38:10.192Z,1.45
2022-10-19T15:40:40.145Z,1.35
2022-10-19T15:43:34.709Z,1.27
2022-10-19T15:46:20.511Z,1.70
2022-10-19T15:48:52.304Z,1.60
2022-10-19T15:51:24.894Z,1.63
2022-10-19T15:53:56.885Z,1.15
2022-10-19T15:56:27.485Z,1.25
2022-10-19T15:58:56.816Z,1.20
2022-10-19T16:01:26.594Z,1.08
2022-10-19T16:03:54.419Z,1.42
2022-10-19T16:06:23.440Z,1.70
2022-10-19T16:08:51.275Z,1.63
2022-10-19T16:11:21.169Z,1.45
2022-10-19T16:13:47.853Z,1.60
2022-10-19T16:16:28.245Z,1.40
2022-10-19T16:18:55.518Z,1.75
2022-10-19T16:21:26.851Z,2.47
2022-10-19T16:23:53.805Z,2.27
2022-10-19T16:26:21.124Z,1.88
2022-10-19T16:28:48.889Z,1.88
2022-10-19T16:31:17.203Z,2.30
2022-10-19T16:33:44.136Z,3.40
2022-10-19T16:36:11.162Z,3.50
2022-10-19T16:38:37.803Z,3.55
2022-10-19T16:41:07.993Z,2.90
2022-10-19T16:43:35.468Z,3.08
2022-10-19T16:46:02.794Z,3.35
2022-10-19T16:48:30.118Z,3.92
2022-10-19T16:51:06.083Z,3.72
2022-10-19T16:53:40.422Z,3.25
2022-10-19T16:56:16.486Z,3.60
2022-10-19T16:58:44.275Z,3.97
2022-10-19T17:01:18.920Z,3.25
2022-10-19T17:03:48.369Z,3.83
2022-10-19T17:06:16.150Z,4.22
2022-10-19T17:11:51.831Z,4.35
2022-10-19T17:14:27.282Z,5.15
2022-10-19T17:16:53.982Z,4.90
2022-10-19T17:19:26.693Z,4.97
2022-10-19T17:21:56.042Z,5.88
2022-10-19T17:24:23.046Z,5.93
2022-10-19T17:26:56.551Z,6.78
2022-10-19T17:29:23.497Z,6.60
2022-10-19T17:31:50.708Z,6.70
2022-10-19T17:34:22.601Z,6.93
2022-10-19T17:36:52.847Z,7.10
2022-10-19T17:39:30.830Z,7.18
2022-10-19T17:42:05.074Z,7.28
2022-10-19T17:44:31.979Z,7.50
2022-10-19T17:47:09.948Z,7.38
2022-10-19T17:49:37.063Z,6.85
2022-10-19T17:52:03.773Z,6.95
2022-10-19T17:54:30.727Z,7.75
2022-10-19T17:57:05.917Z,7.43
2022-10-19T17:59:46.764Z,7.28
2022-10-19T18:02:19.010Z,7.63
2022-10-19T18:04:45.617Z,7.55
2022-10-19T18:07:12.208Z,8.15
2022-10-19T18:09:38.953Z,8.23
2022-10-19T18:12:07.491Z,7.38
2022-10-19T18:14:34.450Z,8.07
2022-10-19T18:17:01.049Z,8.57
2022-10-19T18:19:27.931Z,8.35
2022-10-19T18:21:54.623Z,7.43
2022-10-19T18:24:21.655Z,8.90
2022-10-19T18:26:52.215Z,9.07
2022-10-19T18:29:23.953Z,8.32
2022-10-19T18:31:55.119Z,8.23
2022-10-19T18:34:26.513Z,8.70
2022-10-19T18:36:53.963Z,9.15
2022-10-19T18:39:21.094Z,8.65
2022-10-19T18:41:51.903Z,9.35
2022-10-19T18:44:23.502Z,8.60
2022-10-19T18:46:53.126Z,9.38
2022-10-19T18:49:19.823Z,9.68
2022-10-19T18:51:50.742Z,10.63
2022-10-19T18:54:21.583Z,10.75
2022-10-19T18:56:48.199Z,10.43
2022-10-19T18:59:15.237Z,11.50
2022-10-19T19:01:41.971Z,11.48
2022-10-19T19:04:09.671Z,11.05
2022-10-19T19:06:37.718Z,10.30
2022-10-19T19:09:07.930Z,10.75
2022-10-19T19:11:41.578Z,11.82
2022-10-19T19:14:25.375Z,11.88
2022-10-19T19:17:04.239Z,11.90
2022-10-19T19:19:36.308Z,11.70
2022-10-19T19:22:09.637Z,12.30
2022-10-19T19:24:37.079Z,13.90
2022-10-19T19:27:03.896Z,13.23
2022-10-19T19:29:30.674Z,12.65
2022-10-19T19:31:57.454Z,11.85
2022-10-19T19:34:24.226Z,12.43
2022-10-19T19:36:51.069Z,13.40
2022-10-19T19:39:20.121Z,12.35
2022-10-19T19:41:48.384Z,12.43
2022-10-19T19:44:15.694Z,11.63
2022-10-19T19:46:42.740Z,11.70
2022-10-19T19:49:09.607Z,10.82
2022-10-19T19:51:36.353Z,11.90
2022-10-19T19:54:03.154Z,10.48
2022-10-19T19:56:30.637Z,10.77
2022-10-19T19:58:59.686Z,11.18
2022-10-19T20:01:27.191Z,10.57
2022-10-19T20:03:55.043Z,10.93
2022-10-19T20:06:25.085Z,11.80
2022-10-19T20:08:53.456Z,11.02
2022-10-19T20:11:20.188Z,11.02
2022-10-19T20:13:46.829Z,9.93
2022-10-19T20:16:25.119Z,9.32
2022-10-19T20:19:08.413Z,8.45
2022-10-19T20:21:35.313Z,9.00
2022-10-19T20:24:02.190Z,9.10
2022-10-19T20:26:29.938Z,8.15
2022-10-19T20:28:57.289Z,7.93
2022-10-19T20:31:25.062Z,8.00
2022-10-19T20:33:51.871Z,7.97
2022-10-19T20:36:25.088Z,8.10
2022-10-19T20:38:57.028Z,7.45
2022-10-19T20:41:28.058Z,7.68
2022-10-19T20:43:55.686Z,7.85
2022-10-19T20:46:28.194Z,7.68
2022-10-19T20:48:59.885Z,8.10
2022-10-19T20:51:31.908Z,8.02
2022-10-19T20:54:01.041Z,8.52
2022-10-19T20:56:38.709Z,8.65
2022-10-19T20:59:08.353Z,8.00
2022-10-19T21:01:37.295Z,8.52
2022-10-19T21:04:06.071Z,8.65
2022-10-19T21:06:37.001Z,7.50
2022-10-19T21:09:04.586Z,7.10
2022-10-19T21:11:34.414Z,7.97
2022-10-19T21:14:03.890Z,8.40
2022-10-19T21:16:34.059Z,9.30
2022-10-19T21:19:02.373Z,9.18
2022-10-19T21:21:38.548Z,9.48
2022-10-19T21:24:11.622Z,8.38
2022-10-19T21:26:38.752Z,8.88
2022-10-19T21:29:09.635Z,7.53
2022-10-19T21:31:44.078Z,7.72
2022-10-19T21:34:16.335Z,7.75
2022-10-19T21:36:43.229Z,6.90
2022-10-19T21:39:10.051Z,6.93
2022-10-19T21:41:37.041Z,7.18
2022-10-19T21:44:03.837Z,6.20
2022-10-19T21:46:30.778Z,7.18
2022-10-19T21:48:57.653Z,6.95
2022-10-19T21:51:35.124Z,6.15
2022-10-19T21:56:48.782Z,6.10
2022-10-19T21:59:27.797Z,6.25
2022-10-19T22:01:58.263Z,5.93
2022-10-19T22:04:37.381Z,6.00
2022-10-19T22:07:07.296Z,5.57
2022-10-19T22:09:46.426Z,5.65
2022-10-19T22:14:46.716Z,5.72
2022-10-19T22:17:13.427Z,5.72
2022-10-19T22:19:40.000Z,5.43
2022-10-19T22:22:06.678Z,6.63
2022-10-19T22:24:34.769Z,4.85
2022-10-19T22:27:01.452Z,5.80
2022-10-19T22:29:28.060Z,5.20
2022-10-19T22:31:54.632Z,4.97
2022-10-19T22:34:21.423Z,5.45
2022-10-19T22:36:48.250Z,5.18
2022-10-19T22:39:15.633Z,5.65
2022-10-19T22:41:42.282Z,5.55
2022-10-19T22:44:08.866Z,5.45
2022-10-19T22:46:35.507Z,6.00
2022-10-19T22:49:02.227Z,5.75
2022-10-19T22:51:28.916Z,5.72
2022-10-19T22:53:55.585Z,5.93
2022-10-19T22:56:24.967Z,5.50
2022-10-19T22:58:51.704Z,5.30
2022-10-19T23:01:18.387Z,4.78
2022-10-19T23:03:45.071Z,5.22
2022-10-19T23:06:13.517Z,4.78
2022-10-19T23:08:40.410Z,4.00
2022-10-19T23:11:07.181Z,3.53
2022-10-19T23:13:33.809Z,3.90
2022-10-19T23:16:00.927Z,3.75
2022-10-19T23:18:30.198Z,4.13
2022-10-19T23:21:01.650Z,3.83
2022-10-19T23:23:29.665Z,3.80
2022-10-19T23:26:08.267Z,3.75
2022-10-19T23:28:37.057Z,3.63
2022-10-19T23:31:15.752Z,3.90
2022-10-19T23:33:43.075Z,4.13
2022-10-19T23:36:14.821Z,4.22
2022-10-19T23:38:43.111Z,3.63
2022-10-19T23:41:10.221Z,3.85
2022-10-19T23:46:08.861Z,3.83
2022-10-19T23:48:36.226Z,3.95
2022-10-19T23:51:12.766Z,3.83
2022-10-19T23:53:41.730Z,3.20
2022-10-19T23:56:20.631Z,3.72
2022-10-19T23:58:47.313Z,3.47
